createdAt,value
2023-04-06T00:00:46.696Z,0.56
2023-04-06T00:01:46.689Z,0.52
2023-04-06T00:02:46.691Z,0.58
2023-04-06T00:03:46.673Z,0.49
2023-04-06T00:04:46.622Z,0.58
2023-04-06T00:05:46.603Z,0.44
2023-04-06T00:06:46.585Z,0.42
2023-04-06T00:07:46.564Z,0.36
2023-04-06T00:08:46.546Z,0.27
2023-04-06T00:09:46.529Z,0.29
2023-04-06T00:10:46.521Z,0.34
2023-04-06T00:11:46.503Z,0.23
2023-04-06T00:12:46.485Z,0.24
2023-04-06T00:13:46.458Z,0.24
2023-04-06T00:14:46.430Z,0.27
2023-04-06T00:15:46.425Z,0.23
2023-04-06T00:16:46.431Z,0.19
2023-04-06T00:17:46.432Z,0.18
2023-04-06T00:18:46.365Z,0.08
2023-04-06T00:19:46.334Z,0.13
2023-04-06T00:20:46.319Z,0.16
2023-04-06T00:21:46.313Z,0.12
2023-04-06T00:22:46.293Z,0.12
2023-04-06T00:23:46.261Z,0.19
2023-04-06T00:24:46.239Z,0.13
2023-04-06T00:25:46.244Z,0.12
2023-04-06T00:26:46.208Z,0.19
2023-04-06T00:27:46.188Z,0.15
2023-04-06T00:28:46.166Z,0.06
2023-04-06T00:29:46.152Z,0.08
2023-04-06T00:30:46.134Z,0.02
2023-04-06T00:31:46.129Z,-0.02
2023-04-06T00:32:46.109Z,-0.02
2023-04-06T00:33:46.073Z,-0.10
2023-04-06T00:34:46.053Z,-0.05
2023-04-06T00:35:46.079Z,-0.09
2023-04-06T00:36:46.032Z,-0.03
2023-04-06T00:37:46.003Z,-0.10
2023-04-06T00:38:46.032Z,-0.13
2023-04-06T00:39:45.976Z,-0.21
2023-04-06T00:40:45.941Z,-0.20
2023-04-06T00:41:45.918Z,-0.28
2023-04-06T00:42:45.900Z,-0.18
2023-04-06T00:43:45.882Z,-0.24
2023-04-06T00:44:45.865Z,-0.26
2023-04-06T00:45:45.902Z,-0.38
2023-04-06T00:46:45.894Z,-0.28
2023-04-06T00:47:45.895Z,-0.30
2023-04-06T00:48:45.788Z,-0.39
2023-04-06T00:49:45.766Z,-0.23
2023-04-06T00:50:45.749Z,-0.36
2023-04-06T00:51:45.736Z,-0.31
2023-04-06T00:52:45.717Z,-0.30
2023-04-06T00:53:45.693Z,-0.35
2023-04-06T00:54:45.677Z,-0.38
2023-04-06T00:55:45.659Z,-0.36
2023-04-06T00:56:45.646Z,-0.33
2023-04-06T00:57:45.612Z,-0.44
2023-04-06T00:58:45.597Z,-0.35
2023-04-06T00:59:45.589Z,-0.39
2023-04-06T01:00:45.559Z,-0.41
2023-04-06T01:01:45.566Z,-0.35
2023-04-06T01:02:45.530Z,-0.26
2023-04-06T01:03:45.503Z,-0.27
2023-04-06T01:04:45.484Z,-0.27
2023-04-06T01:05:45.526Z,-0.23
2023-04-06T01:06:45.443Z,-0.30
2023-04-06T01:07:45.432Z,-0.20
2023-04-06T01:08:45.409Z,-0.09
2023-04-06T01:09:45.384Z,-0.13
2023-04-06T01:10:45.378Z,-0.15
2023-04-06T01:11:45.346Z,-0.13
2023-04-06T01:12:45.329Z,-0.23
2023-04-06T01:13:45.432Z,-0.20
2023-04-06T01:14:45.401Z,-0.24
2023-04-06T01:15:45.354Z,-0.24
2023-04-06T01:16:45.301Z,-0.21
2023-04-06T01:17:45.365Z,-0.23
2023-04-06T01:18:45.233Z,-0.27
2023-04-06T01:19:45.197Z,-0.27
2023-04-06T01:20:45.176Z,-0.28
2023-04-06T01:21:45.172Z,-0.36
2023-04-06T01:22:45.142Z,-0.36
2023-04-06T01:23:45.118Z,-0.39
2023-04-06T01:24:45.105Z,-0.38
2023-04-06T01:25:45.080Z,-0.21
2023-04-06T01:26:45.070Z,-0.27
2023-04-06T01:27:45.092Z,-0.27
2023-04-06T01:28:45.025Z,-0.27
2023-04-06T01:29:45.010Z,-0.26
2023-04-06T01:30:44.991Z,-0.33
2023-04-06T01:31:44.991Z,-0.23
2023-04-06T01:32:44.970Z,-0.23
2023-04-06T01:33:44.927Z,-0.26
2023-04-06T01:34:44.915Z,-0.35
2023-04-06T01:35:44.961Z,-0.26
2023-04-06T01:36:44.883Z,-0.26
2023-04-06T01:37:44.882Z,-0.26
2023-04-06T01:38:44.863Z,-0.38
2023-04-06T01:39:44.808Z,-0.27
2023-04-06T01:40:44.797Z,-0.27
2023-04-06T01:41:44.773Z,-0.23
2023-04-06T01:42:44.768Z,-0.09
2023-04-06T01:43:44.739Z,-0.13
2023-04-06T01:44:44.726Z,-0.05
2023-04-06T01:45:44.696Z,-0.05
2023-04-06T01:46:44.715Z,-0.06
2023-04-06T01:47:44.758Z,-0.05
2023-04-06T01:48:44.639Z,-0.06
2023-04-06T01:49:44.628Z,-0.07
2023-04-06T01:50:44.599Z,-0.12
2023-04-06T01:51:44.577Z,-0.09
2023-04-06T01:52:44.560Z,-0.12
2023-04-06T01:53:44.541Z,-0.18
2023-04-06T01:54:44.529Z,-0.24
2023-04-06T01:55:44.501Z,-0.27
2023-04-06T01:56:44.496Z,-0.30
2023-04-06T01:57:44.465Z,-0.20
2023-04-06T01:58:44.484Z,-0.13
2023-04-06T01:59:44.510Z,-0.26
2023-04-06T02:00:44.463Z,-0.13
2023-04-06T02:01:44.434Z,-0.21
2023-04-06T02:02:44.401Z,-0.15
2023-04-06T02:03:44.353Z,-0.12
2023-04-06T02:04:44.333Z,-0.24
2023-04-06T02:05:44.311Z,-0.13
2023-04-06T02:06:44.296Z,-0.10
2023-04-06T02:07:44.295Z,-0.15
2023-04-06T02:08:44.252Z,-0.07
2023-04-06T02:09:44.228Z,-0.09
2023-04-06T02:10:44.215Z,-0.13
2023-04-06T02:11:44.196Z,-0.15
2023-04-06T02:12:44.181Z,-0.12
2023-04-06T02:13:44.157Z,-0.02
2023-04-06T02:14:44.139Z,-0.10
2023-04-06T02:15:44.120Z,-0.02
2023-04-06T02:16:44.153Z,-0.06
2023-04-06T02:17:44.130Z,-0.03
2023-04-06T02:18:44.067Z,-0.05
2023-04-06T02:19:44.040Z,-0.03
2023-04-06T02:20:44.029Z,-0.10
2023-04-06T02:21:44.000Z,-0.21
2023-04-06T02:22:43.987Z,-0.28
2023-04-06T02:23:43.972Z,-0.28
2023-04-06T02:24:43.942Z,-0.21
2023-04-06T02:25:43.923Z,-0.26
2023-04-06T02:26:43.904Z,-0.35
2023-04-06T02:27:43.887Z,-0.35
2023-04-06T02:28:43.879Z,-0.44
2023-04-06T02:29:43.847Z,-0.42
2023-04-06T02:30:43.852Z,-0.46
2023-04-06T02:31:43.825Z,-0.56
2023-04-06T02:32:43.851Z,-0.49
2023-04-06T02:33:43.780Z,-0.46
2023-04-06T02:34:43.747Z,-0.60
2023-04-06T02:35:43.753Z,-0.56
2023-04-06T02:36:43.712Z,-0.64
2023-04-06T02:37:43.690Z,-0.74
2023-04-06T02:38:43.673Z,-0.74
2023-04-06T02:39:43.649Z,-0.81
2023-04-06T02:40:43.637Z,-0.75
2023-04-06T02:41:43.625Z,-0.84
2023-04-06T02:42:43.592Z,-0.89
2023-04-06T02:43:43.575Z,-0.89
2023-04-06T02:44:43.583Z,-0.91
2023-04-06T02:45:43.599Z,-0.89
2023-04-06T02:46:43.516Z,-0.93
2023-04-06T02:47:43.524Z,-0.85
2023-04-06T02:48:43.475Z,-0.85
2023-04-06T02:49:43.463Z,-0.85
2023-04-06T02:50:43.441Z,-1.00
2023-04-06T02:51:43.436Z,-0.99
2023-04-06T02:52:43.405Z,-1.00
2023-04-06T02:53:43.383Z,-0.97
2023-04-06T02:54:43.366Z,-0.97
2023-04-06T02:55:43.342Z,-0.99
2023-04-06T02:56:43.330Z,-1.06
2023-04-06T02:57:43.309Z,-1.01
2023-04-06T02:58:43.286Z,-1.00
2023-04-06T02:59:43.286Z,-1.00
2023-04-06T03:00:43.305Z,-1.14
2023-04-06T03:01:43.329Z,-1.04
2023-04-06T03:02:43.243Z,-1.15
2023-04-06T03:03:43.257Z,-1.18
2023-04-06T03:04:43.179Z,-1.12
2023-04-06T03:05:43.156Z,-1.22
2023-04-06T03:06:43.123Z,-1.14
2023-04-06T03:07:43.113Z,-1.18
2023-04-06T03:08:43.098Z,-1.17
2023-04-06T03:09:43.067Z,-1.01
2023-04-06T03:10:43.054Z,-0.97
2023-04-06T03:11:43.040Z,-1.00
2023-04-06T03:12:43.005Z,-1.07
2023-04-06T03:13:42.986Z,-1.04
2023-04-06T03:14:42.983Z,-1.11
2023-04-06T03:15:42.999Z,-1.19
2023-04-06T03:16:42.931Z,-1.18
2023-04-06T03:17:42.985Z,-1.17
2023-04-06T03:18:42.887Z,-1.22
2023-04-06T03:19:42.876Z,-1.17
2023-04-06T03:20:42.847Z,-1.17
2023-04-06T03:21:42.826Z,-1.15
2023-04-06T03:22:42.810Z,-1.14
2023-04-06T03:23:42.798Z,-1.14
2023-04-06T03:24:42.775Z,-1.18
2023-04-06T03:25:42.750Z,-1.27
2023-04-06T03:26:42.727Z,-1.25
2023-04-06T03:27:42.708Z,-1.36
2023-04-06T03:28:42.688Z,-1.30
2023-04-06T03:29:42.679Z,-1.38
2023-04-06T03:30:42.645Z,-1.35
2023-04-06T03:31:42.696Z,-1.36
2023-04-06T03:32:42.656Z,-1.18
2023-04-06T03:33:42.596Z,-1.27
2023-04-06T03:34:42.581Z,-1.30
2023-04-06T03:35:42.606Z,-1.38
2023-04-06T03:36:42.542Z,-1.45
2023-04-06T03:37:42.516Z,-1.32
2023-04-06T03:38:42.498Z,-1.39
2023-04-06T03:39:42.477Z,-1.40
2023-04-06T03:40:42.461Z,-1.33
2023-04-06T03:41:42.438Z,-1.39
2023-04-06T03:42:42.433Z,-1.39
2023-04-06T03:43:42.387Z,-1.39
2023-04-06T03:44:42.380Z,-1.38
2023-04-06T03:45:42.387Z,-1.36
2023-04-06T03:46:42.345Z,-1.42
2023-04-06T03:47:42.331Z,-1.42
2023-04-06T03:48:42.302Z,-1.42
2023-04-06T03:49:42.275Z,-1.45
2023-04-06T03:50:42.250Z,-1.42
2023-04-06T03:51:42.238Z,-1.45
2023-04-06T03:52:42.214Z,-1.46
2023-04-06T03:53:42.191Z,-1.40
2023-04-06T03:54:42.168Z,-1.42
2023-04-06T03:55:42.161Z,-1.46
2023-04-06T03:56:42.138Z,-1.43
2023-04-06T03:57:42.135Z,-1.54
2023-04-06T03:58:42.085Z,-1.48
2023-04-06T03:59:42.141Z,-1.53
2023-04-06T04:00:42.050Z,-1.53
2023-04-06T04:01:42.049Z,-1.46
2023-04-06T04:02:42.053Z,-1.56
2023-04-06T04:03:42.060Z,-1.43
2023-04-06T04:04:42.001Z,-1.50
2023-04-06T04:05:41.982Z,-1.43
2023-04-06T04:06:41.930Z,-1.42
2023-04-06T04:07:41.904Z,-1.40
2023-04-06T04:08:41.884Z,-1.46
2023-04-06T04:09:41.898Z,-1.40
2023-04-06T04:10:41.844Z,-1.45
2023-04-06T04:11:41.827Z,-1.46
2023-04-06T04:12:41.810Z,-1.53
2023-04-06T04:13:41.790Z,-1.50
2023-04-06T04:14:41.768Z,-1.46
2023-04-06T04:15:41.746Z,-1.56
2023-04-06T04:16:41.781Z,-1.54
2023-04-06T04:17:43.897Z,-1.58
2023-04-06T04:18:41.698Z,-1.58
2023-04-06T04:19:42.001Z,-1.63
2023-04-06T04:20:41.651Z,-1.56
2023-04-06T04:21:41.628Z,-1.76
2023-04-06T04:22:41.610Z,-1.68
2023-04-06T04:23:41.587Z,-1.71
2023-04-06T04:24:41.564Z,-1.76
2023-04-06T04:25:41.555Z,-1.71
2023-04-06T04:26:41.535Z,-1.74
2023-04-06T04:27:41.507Z,-1.71
2023-04-06T04:28:41.497Z,-1.66
2023-04-06T04:29:41.469Z,-1.71
2023-04-06T04:30:41.445Z,-1.69
2023-04-06T04:31:41.471Z,-1.78
2023-04-06T04:32:41.473Z,-1.76
2023-04-06T04:33:41.393Z,-1.75
2023-04-06T04:34:41.418Z,-1.69
2023-04-06T04:35:41.393Z,-1.71
2023-04-06T04:36:41.338Z,-1.72
2023-04-06T04:37:41.316Z,-1.71
2023-04-06T04:38:41.292Z,-1.72
2023-04-06T04:39:41.271Z,-1.71
2023-04-06T04:40:41.258Z,-1.75
2023-04-06T04:41:41.234Z,-1.69
2023-04-06T04:42:41.216Z,-1.72
2023-04-06T04:43:41.197Z,-1.69
2023-04-06T04:44:41.172Z,-1.71
2023-04-06T04:45:41.231Z,-1.72
2023-04-06T04:46:41.136Z,-1.68
2023-04-06T04:47:41.144Z,-1.71
2023-04-06T04:48:41.090Z,-1.63
2023-04-06T04:49:41.082Z,-1.58
2023-04-06T04:50:41.056Z,-1.60
2023-04-06T04:51:41.032Z,-1.64
2023-04-06T04:52:41.032Z,-1.57
2023-04-06T04:53:41.001Z,-1.50
2023-04-06T04:54:40.970Z,-1.53
2023-04-06T04:55:40.951Z,-1.48
2023-04-06T04:56:40.964Z,-1.53
2023-04-06T04:57:40.919Z,-1.58
2023-04-06T04:58:40.890Z,-1.56
2023-04-06T04:59:41.057Z,-1.50
2023-04-06T05:00:40.853Z,-1.58
2023-04-06T05:01:51.787Z,-1.57
2023-04-06T05:02:40.909Z,-1.60
2023-04-06T05:03:40.925Z,-1.60
2023-04-06T05:04:40.769Z,-1.50
2023-04-06T05:05:40.767Z,-1.48
2023-04-06T05:06:40.728Z,-1.51
2023-04-06T05:07:40.726Z,-1.46
2023-04-06T05:08:40.694Z,-1.53
2023-04-06T05:09:40.681Z,-1.45
2023-04-06T05:10:40.653Z,-1.43
2023-04-06T05:11:40.632Z,-1.39
2023-04-06T05:12:40.614Z,-1.43
2023-04-06T05:13:40.662Z,-1.46
2023-04-06T05:14:40.581Z,-1.45
2023-04-06T05:15:40.565Z,-1.33
2023-04-06T05:16:40.533Z,-1.33
2023-04-06T05:17:40.561Z,-1.36
2023-04-06T05:18:40.508Z,-1.27
2023-04-06T05:19:40.473Z,-1.14
2023-04-06T05:20:40.456Z,-1.03
2023-04-06T05:21:40.436Z,-1.07
2023-04-06T05:22:40.413Z,-1.01
2023-04-06T05:23:40.398Z,-0.97
2023-04-06T05:24:40.373Z,-0.87
2023-04-06T05:25:40.363Z,-0.93
2023-04-06T05:26:40.335Z,-0.82
2023-04-06T05:27:40.328Z,-0.77
2023-04-06T05:28:40.297Z,-0.62
2023-04-06T05:29:40.282Z,-0.66
2023-04-06T05:30:40.250Z,-0.56
2023-04-06T05:31:40.290Z,-0.48
2023-04-06T05:32:40.223Z,-0.42
2023-04-06T05:33:40.194Z,-0.35
2023-04-06T05:34:40.173Z,-0.36
2023-04-06T05:35:40.179Z,-0.20
2023-04-06T05:36:40.127Z,-0.24
2023-04-06T05:37:40.110Z,-0.13
2023-04-06T05:38:40.089Z,-0.12
2023-04-06T05:39:40.068Z,-0.12
2023-04-06T05:40:40.060Z,-0.15
2023-04-06T05:41:40.046Z,-0.15
2023-04-06T05:42:40.037Z,-0.07
2023-04-06T05:43:39.998Z,-0.03
2023-04-06T05:44:39.968Z,-0.05
2023-04-06T05:45:39.957Z,0.06
2023-04-06T05:46:40.047Z,0.08
2023-04-06T05:47:39.933Z,0.08
2023-04-06T05:48:39.882Z,0.15
2023-04-06T05:49:39.868Z,0.11
2023-04-06T05:50:39.841Z,0.18
2023-04-06T05:51:39.849Z,0.36
2023-04-06T05:52:39.802Z,0.44
2023-04-06T05:53:39.800Z,0.48
2023-04-06T05:54:39.766Z,0.59
2023-04-06T05:55:39.748Z,0.68
2023-04-06T05:56:39.725Z,0.70
2023-04-06T05:57:39.717Z,0.82
2023-04-06T05:58:39.721Z,0.84
2023-04-06T05:59:39.757Z,0.86
2023-04-06T06:00:39.652Z,0.95
2023-04-06T06:01:39.686Z,1.14
2023-04-06T06:02:39.837Z,1.25
2023-04-06T06:03:39.590Z,1.39
2023-04-06T06:04:39.618Z,1.45
2023-04-06T06:05:39.552Z,1.50
2023-04-06T06:06:39.537Z,1.76
2023-04-06T06:07:39.513Z,1.98
2023-04-06T06:08:39.490Z,2.04
2023-04-06T06:09:39.481Z,2.21
2023-04-06T06:10:39.463Z,2.36
2023-04-06T06:11:39.443Z,2.50
2023-04-06T06:12:39.438Z,2.52
2023-04-06T06:13:39.396Z,2.69
2023-04-06T06:14:39.379Z,2.72
2023-04-06T06:15:39.395Z,2.79
2023-04-06T06:16:39.591Z,2.83
2023-04-06T06:17:39.341Z,2.97
2023-04-06T06:18:39.312Z,3.08
2023-04-06T06:19:39.287Z,3.12
2023-04-06T06:20:39.273Z,3.21
2023-04-06T06:21:39.251Z,3.27
2023-04-06T06:22:39.228Z,3.40
2023-04-06T06:23:39.215Z,3.40
2023-04-06T06:24:39.415Z,3.64
2023-04-06T06:25:39.185Z,3.66
2023-04-06T06:26:39.156Z,3.76
2023-04-06T06:27:39.135Z,3.91
2023-04-06T06:28:39.143Z,4.12
2023-04-06T06:29:39.120Z,4.16
2023-04-06T06:30:39.082Z,4.52
2023-04-06T06:31:39.182Z,4.83
2023-04-06T06:32:39.068Z,5.04
2023-04-06T06:33:39.055Z,5.26
2023-04-06T06:34:39.014Z,5.52
2023-04-06T06:35:39.043Z,5.77
2023-04-06T06:36:38.983Z,6.07
2023-04-06T06:37:38.960Z,6.43
2023-04-06T06:38:38.950Z,6.57
2023-04-06T06:39:38.930Z,6.80
2023-04-06T06:40:38.920Z,6.83
2023-04-06T06:41:38.913Z,6.89
2023-04-06T06:42:38.881Z,6.86
2023-04-06T06:43:38.864Z,6.74
2023-04-06T06:44:38.845Z,6.57
2023-04-06T06:45:38.843Z,6.53
2023-04-06T06:46:38.804Z,6.31
2023-04-06T06:47:38.815Z,6.29
2023-04-06T06:48:38.786Z,6.20
2023-04-06T06:49:38.770Z,6.26
2023-04-06T06:50:38.739Z,6.15
2023-04-06T06:51:38.725Z,6.19
2023-04-06T06:52:38.706Z,6.31
2023-04-06T06:53:38.685Z,6.35
2023-04-06T06:54:38.664Z,6.36
2023-04-06T06:55:38.668Z,6.44
2023-04-06T06:56:38.642Z,6.41
2023-04-06T06:57:38.615Z,6.43
2023-04-06T06:58:38.598Z,6.44
2023-04-06T06:59:38.634Z,6.39
2023-04-06T07:00:38.596Z,6.22
2023-04-06T07:01:38.749Z,6.26
2023-04-06T07:02:38.549Z,6.13
2023-04-06T07:03:38.513Z,6.17
2023-04-06T07:04:38.583Z,6.19
2023-04-06T07:05:40.925Z,6.13
2023-04-06T07:06:38.458Z,6.20
2023-04-06T07:07:38.444Z,6.10
2023-04-06T07:08:38.432Z,6.10
2023-04-06T07:09:38.405Z,6.20
2023-04-06T07:10:38.406Z,6.35
2023-04-06T07:11:38.389Z,6.41
2023-04-06T07:12:38.359Z,6.59
2023-04-06T07:13:38.363Z,6.75
2023-04-06T07:14:38.343Z,6.83
2023-04-06T07:15:38.533Z,7.03
2023-04-06T07:16:38.328Z,7.25
2023-04-06T07:17:38.360Z,7.48
2023-04-06T07:18:38.260Z,7.59
2023-04-06T07:19:38.293Z,7.66
2023-04-06T07:20:38.251Z,7.74
2023-04-06T07:21:38.246Z,7.93
2023-04-06T07:22:38.201Z,8.02
2023-04-06T07:23:38.197Z,8.23
2023-04-06T07:24:38.167Z,8.41
2023-04-06T07:25:38.140Z,8.57
2023-04-06T07:26:38.177Z,8.77
2023-04-06T07:27:38.129Z,9.09
2023-04-06T07:28:38.118Z,9.34
2023-04-06T07:29:38.076Z,9.55
2023-04-06T07:30:38.075Z,9.76
2023-04-06T07:31:38.103Z,10.02
2023-04-06T07:32:38.077Z,10.24
2023-04-06T07:33:38.027Z,10.45
2023-04-06T07:34:37.999Z,10.53
2023-04-06T07:35:38.036Z,10.72
2023-04-06T07:36:37.984Z,10.97
2023-04-06T07:37:37.955Z,11.25
2023-04-06T07:38:37.942Z,11.40
2023-04-06T07:39:37.934Z,11.63
2023-04-06T07:40:37.914Z,11.78
2023-04-06T07:41:37.901Z,11.88
2023-04-06T07:42:37.883Z,12.10
2023-04-06T07:43:37.870Z,12.29
2023-04-06T07:44:37.871Z,12.53
2023-04-06T07:45:37.921Z,12.63
2023-04-06T07:46:37.866Z,12.99
2023-04-06T07:47:37.847Z,13.82
2023-04-06T07:48:37.817Z,15.60
2023-04-06T07:49:37.789Z,18.11
2023-04-06T07:50:37.779Z,20.66
2023-04-06T07:51:37.776Z,22.70
2023-04-06T07:52:38.372Z,24.37
2023-04-06T07:53:37.772Z,25.78
2023-04-06T07:54:37.741Z,27.23
2023-04-06T07:55:37.718Z,28.31
2023-04-06T07:56:37.705Z,29.49
2023-04-06T07:57:37.698Z,30.58
2023-04-06T07:58:37.683Z,31.57
2023-04-06T07:59:37.742Z,32.37
2023-04-06T08:00:37.663Z,33.05
2023-04-06T08:01:37.653Z,33.76
2023-04-06T08:02:37.836Z,34.37
2023-04-06T08:03:37.995Z,34.98
2023-04-06T08:04:37.669Z,35.52
2023-04-06T08:05:37.623Z,35.87
2023-04-06T08:06:37.614Z,36.06
2023-04-06T08:07:37.597Z,36.54
2023-04-06T08:08:37.592Z,36.85
2023-04-06T08:09:37.584Z,37.03
2023-04-06T08:10:37.585Z,37.58
2023-04-06T08:11:37.569Z,38.09
2023-04-06T08:12:37.564Z,38.36
2023-04-06T08:13:37.547Z,38.72
2023-04-06T08:14:37.544Z,38.72
2023-04-06T08:15:37.603Z,38.85
2023-04-06T08:16:37.540Z,39.20
2023-04-06T08:17:37.535Z,39.52
2023-04-06T08:18:37.520Z,39.98
2023-04-06T08:19:37.510Z,40.43
2023-04-06T08:20:37.505Z,40.76
2023-04-06T08:21:37.504Z,41.18
2023-04-06T08:22:37.492Z,41.46
2023-04-06T08:23:37.485Z,41.65
2023-04-06T08:24:37.482Z,41.37
2023-04-06T08:25:37.478Z,41.55
2023-04-06T08:26:37.481Z,41.73
2023-04-06T08:27:37.474Z,41.67
2023-04-06T08:28:37.498Z,41.73
2023-04-06T08:29:37.458Z,42.05
2023-04-06T08:30:37.452Z,42.32
2023-04-06T08:31:37.557Z,41.76
2023-04-06T08:32:37.518Z,41.84
2023-04-06T08:33:37.443Z,42.33
2023-04-06T08:34:37.444Z,42.55
2023-04-06T08:35:37.474Z,42.96
2023-04-06T08:36:37.435Z,43.36
2023-04-06T08:37:37.426Z,43.89
2023-04-06T08:38:37.419Z,44.13
2023-04-06T08:39:37.436Z,44.13
2023-04-06T08:40:37.420Z,44.29
2023-04-06T08:41:37.419Z,44.29
2023-04-06T08:42:37.408Z,44.23
2023-04-06T08:43:37.414Z,43.56
2023-04-06T08:44:37.405Z,43.69
2023-04-06T08:45:37.411Z,44.16
2023-04-06T08:46:37.434Z,44.55
2023-04-06T08:47:37.405Z,44.96
2023-04-06T08:48:37.398Z,44.86
2023-04-06T08:49:37.394Z,44.35
2023-04-06T08:50:37.387Z,44.44
2023-04-06T08:51:37.386Z,44.76
2023-04-06T08:52:37.387Z,45.01
2023-04-06T08:53:37.374Z,45.59
2023-04-06T08:54:37.375Z,45.88
2023-04-06T08:55:37.379Z,45.69
2023-04-06T08:56:37.370Z,45.82
2023-04-06T08:57:37.366Z,45.58
2023-04-06T08:58:38.742Z,45.17
2023-04-06T08:59:37.534Z,45.49
2023-04-06T09:00:37.362Z,45.17
2023-04-06T09:01:37.380Z,44.53
2023-04-06T09:02:37.414Z,45.02
2023-04-06T09:03:37.485Z,45.83
2023-04-06T09:04:37.418Z,46.47
2023-04-06T09:05:37.351Z,47.02
2023-04-06T09:06:37.348Z,47.25
2023-04-06T09:07:37.368Z,47.00
2023-04-06T09:08:37.361Z,46.56
2023-04-06T09:09:37.348Z,46.15
2023-04-06T09:10:37.354Z,45.42
2023-04-06T09:11:37.340Z,44.91
2023-04-06T09:12:37.360Z,44.02
2023-04-06T09:13:37.339Z,44.00
2023-04-06T09:14:37.362Z,43.61
2023-04-06T09:15:37.344Z,44.04
2023-04-06T09:16:37.373Z,44.45
2023-04-06T09:17:37.364Z,44.92
2023-04-06T09:18:37.332Z,45.35
2023-04-06T09:19:37.336Z,45.21
2023-04-06T09:20:37.359Z,45.24
2023-04-06T09:21:37.329Z,45.77
2023-04-06T09:22:37.332Z,45.51
2023-04-06T09:23:37.350Z,44.83
2023-04-06T09:24:37.334Z,43.77
2023-04-06T09:25:37.326Z,43.56
2023-04-06T09:26:37.324Z,44.23
2023-04-06T09:27:37.324Z,45.02
2023-04-06T09:28:37.327Z,45.66
2023-04-06T09:29:37.319Z,45.85
2023-04-06T09:30:37.336Z,45.71
2023-04-06T09:31:37.341Z,45.52
2023-04-06T09:32:37.335Z,45.23
2023-04-06T09:33:37.317Z,45.64
2023-04-06T09:34:37.321Z,46.50
2023-04-06T09:35:37.375Z,47.44
2023-04-06T09:36:37.320Z,48.29
2023-04-06T09:37:37.323Z,49.00
2023-04-06T09:38:37.316Z,49.56
2023-04-06T09:39:37.316Z,49.88
2023-04-06T09:40:39.879Z,50.17
2023-04-06T09:41:37.313Z,50.64
2023-04-06T09:42:37.321Z,50.40
2023-04-06T09:43:37.322Z,49.40
2023-04-06T09:44:37.313Z,48.32
2023-04-06T09:45:37.312Z,46.77
2023-04-06T09:46:50.712Z,46.01
2023-04-06T09:47:37.410Z,46.51
2023-04-06T09:48:37.333Z,47.67
2023-04-06T09:49:37.313Z,48.25
2023-04-06T09:50:37.316Z,48.85
2023-04-06T09:51:39.751Z,49.55
2023-04-06T09:52:37.316Z,50.03
2023-04-06T09:53:37.312Z,50.15
2023-04-06T09:54:37.333Z,49.91
2023-04-06T09:55:37.316Z,50.13
2023-04-06T09:56:37.315Z,49.95
2023-04-06T09:57:37.328Z,49.66
2023-04-06T09:58:37.399Z,49.19
2023-04-06T09:59:37.343Z,48.77
2023-04-06T10:00:37.332Z,49.12
2023-04-06T10:01:37.325Z,49.64
2023-04-06T10:02:37.364Z,50.19
2023-04-06T10:03:37.388Z,50.35
2023-04-06T10:04:37.318Z,51.33
2023-04-06T10:05:37.316Z,52.35
2023-04-06T10:06:37.322Z,53.44
2023-04-06T10:07:43.239Z,53.22
2023-04-06T10:08:37.335Z,52.88
2023-04-06T10:09:37.323Z,52.73
2023-04-06T10:10:37.333Z,53.14
2023-04-06T10:11:37.326Z,53.12
2023-04-06T10:12:37.334Z,53.11
2023-04-06T10:13:37.326Z,53.79
2023-04-06T10:14:37.332Z,54.20
2023-04-06T10:15:37.334Z,53.36
2023-04-06T10:16:37.365Z,52.07
2023-04-06T10:17:37.380Z,51.76
2023-04-06T10:18:37.338Z,51.94
2023-04-06T10:19:37.338Z,52.35
2023-04-06T10:20:37.348Z,52.67
2023-04-06T10:21:37.341Z,53.21
2023-04-06T10:22:37.343Z,53.09
2023-04-06T10:23:37.363Z,53.62
2023-04-06T10:24:37.354Z,53.77
2023-04-06T10:25:37.348Z,54.13
2023-04-06T10:26:37.348Z,54.70
2023-04-06T10:27:37.357Z,54.42
2023-04-06T10:28:37.386Z,54.34
2023-04-06T10:29:37.359Z,54.73
2023-04-06T10:30:37.366Z,55.49
2023-04-06T10:31:37.394Z,56.46
2023-04-06T10:32:37.406Z,56.81
2023-04-06T10:33:37.390Z,56.78
2023-04-06T10:34:37.391Z,55.62
2023-04-06T10:35:37.389Z,53.74
2023-04-06T10:36:37.388Z,52.62
2023-04-06T10:37:37.412Z,52.55
2023-04-06T10:38:41.179Z,53.02
2023-04-06T10:39:37.396Z,54.13
2023-04-06T10:40:37.395Z,54.67
2023-04-06T10:41:37.396Z,52.90
2023-04-06T10:42:37.435Z,52.38
2023-04-06T10:43:37.479Z,52.51
2023-04-06T10:44:37.404Z,53.27
2023-04-06T10:45:37.436Z,53.25
2023-04-06T10:46:37.415Z,53.02
2023-04-06T10:47:37.477Z,53.24
2023-04-06T10:48:37.415Z,53.48
2023-04-06T10:49:37.425Z,53.53
2023-04-06T10:50:37.430Z,53.82
2023-04-06T10:51:37.422Z,53.90
2023-04-06T10:52:37.423Z,52.35
2023-04-06T10:53:37.445Z,50.42
2023-04-06T10:54:37.428Z,49.66
2023-04-06T10:55:37.425Z,49.53
2023-04-06T10:56:37.445Z,49.64
2023-04-06T10:57:37.434Z,49.74
2023-04-06T10:58:37.709Z,50.05
2023-04-06T10:59:37.482Z,50.26
2023-04-06T11:00:49.700Z,49.56
2023-04-06T11:01:37.502Z,48.68
2023-04-06T11:02:37.503Z,47.58
2023-04-06T11:03:37.441Z,47.55
2023-04-06T11:04:37.521Z,47.77
2023-04-06T11:05:37.444Z,48.82
2023-04-06T11:06:37.445Z,49.00
2023-04-06T11:07:37.447Z,47.44
2023-04-06T11:08:37.585Z,44.26
2023-04-06T11:09:37.443Z,41.17
2023-04-06T11:10:37.456Z,38.82
2023-04-06T11:11:37.456Z,36.25
2023-04-06T11:12:37.443Z,34.26
2023-04-06T11:13:37.446Z,32.75
2023-04-06T11:14:37.447Z,32.04
2023-04-06T11:15:38.968Z,32.00
2023-04-06T11:16:37.462Z,33.13
2023-04-06T11:17:37.513Z,35.81
2023-04-06T11:18:37.746Z,38.68
2023-04-06T11:19:37.436Z,41.00
2023-04-06T11:20:37.444Z,43.25
2023-04-06T11:21:37.457Z,44.83
2023-04-06T11:22:37.434Z,46.02
2023-04-06T11:23:37.432Z,47.34
2023-04-06T11:24:37.435Z,48.26
2023-04-06T11:25:37.432Z,48.14
2023-04-06T11:26:37.425Z,47.61
2023-04-06T11:27:37.432Z,48.14
2023-04-06T11:28:37.586Z,48.77
2023-04-06T11:29:37.428Z,49.21
2023-04-06T11:30:37.440Z,49.75
2023-04-06T11:31:37.481Z,50.17
2023-04-06T11:32:37.506Z,50.06
2023-04-06T11:33:37.422Z,50.13
2023-04-06T11:34:37.431Z,49.59
2023-04-06T11:35:37.455Z,49.31
2023-04-06T11:36:37.420Z,49.25
2023-04-06T11:37:37.429Z,49.43
2023-04-06T11:38:37.606Z,49.34
2023-04-06T11:39:37.446Z,49.79
2023-04-06T11:40:37.454Z,50.06
2023-04-06T11:41:37.446Z,50.60
2023-04-06T11:42:37.428Z,50.51
2023-04-06T11:43:37.425Z,48.93
2023-04-06T11:44:37.431Z,48.55
2023-04-06T11:45:37.467Z,47.89
2023-04-06T11:46:37.444Z,48.22
2023-04-06T11:47:37.521Z,49.05
2023-04-06T11:48:37.920Z,49.47
2023-04-06T11:49:37.426Z,49.59
2023-04-06T11:50:38.023Z,49.79
2023-04-06T11:51:37.427Z,49.06
2023-04-06T11:52:37.549Z,48.46
2023-04-06T11:53:37.432Z,48.17
2023-04-06T11:54:37.475Z,48.23
2023-04-06T11:55:37.446Z,47.76
2023-04-06T11:56:37.813Z,46.78
2023-04-06T11:57:37.425Z,46.05
2023-04-06T11:58:37.447Z,45.90
2023-04-06T11:59:37.714Z,46.01
2023-04-06T12:00:37.420Z,45.80
2023-04-06T12:01:39.407Z,45.39
2023-04-06T12:02:37.506Z,43.97
2023-04-06T12:03:37.580Z,41.20
2023-04-06T12:04:37.496Z,39.32
2023-04-06T12:05:37.423Z,38.48
2023-04-06T12:06:37.421Z,37.75
2023-04-06T12:07:37.415Z,37.04
2023-04-06T12:08:37.607Z,36.87
2023-04-06T12:09:37.420Z,37.53
2023-04-06T12:10:37.406Z,38.17
2023-04-06T12:11:37.407Z,38.12
2023-04-06T12:12:37.408Z,37.88
2023-04-06T12:13:37.415Z,37.25
2023-04-06T12:14:37.397Z,37.09
2023-04-06T12:15:37.406Z,36.69
2023-04-06T12:16:37.528Z,36.25
2023-04-06T12:17:37.424Z,36.14
2023-04-06T12:18:37.406Z,36.01
2023-04-06T12:19:37.395Z,35.74
2023-04-06T12:20:37.419Z,35.81
2023-04-06T12:21:37.388Z,35.93
2023-04-06T12:22:37.404Z,36.59
2023-04-06T12:23:37.390Z,36.99
2023-04-06T12:24:37.382Z,37.16
2023-04-06T12:25:37.376Z,37.57
2023-04-06T12:26:37.383Z,37.79
2023-04-06T12:27:37.352Z,37.80
2023-04-06T12:28:37.399Z,37.80
2023-04-06T12:29:37.379Z,37.16
2023-04-06T12:30:37.372Z,36.14
2023-04-06T12:31:37.405Z,34.97
2023-04-06T12:32:37.376Z,33.65
2023-04-06T12:33:37.329Z,32.49
2023-04-06T12:34:37.328Z,31.86
2023-04-06T12:35:37.321Z,30.70
2023-04-06T12:36:37.362Z,30.80
2023-04-06T12:37:37.328Z,31.26
2023-04-06T12:38:37.304Z,30.74
2023-04-06T12:39:37.312Z,29.98
2023-04-06T12:40:37.320Z,29.81
2023-04-06T12:41:37.308Z,29.43
2023-04-06T12:42:37.288Z,29.12
2023-04-06T12:43:37.277Z,28.86
2023-04-06T12:44:37.275Z,28.67
2023-04-06T12:45:37.295Z,28.25
2023-04-06T12:46:37.313Z,27.83
2023-04-06T12:47:37.282Z,27.43
2023-04-06T12:48:37.248Z,27.26
2023-04-06T12:49:37.242Z,26.97
2023-04-06T12:50:37.253Z,27.00
2023-04-06T12:51:37.233Z,27.20
2023-04-06T12:52:37.223Z,27.30
2023-04-06T12:53:37.213Z,27.33
2023-04-06T12:54:37.212Z,27.57
2023-04-06T12:55:37.199Z,27.38
2023-04-06T12:56:37.208Z,27.16
2023-04-06T12:57:37.186Z,26.70